Abingdon, Illinois
Current Conditions -  °F | °C
As of 8:35 PM on Saturday 25 Oct 2014 (Local Time) from KGBG Reporting Station
Clear Clear  
Wind Chill: 53°   Ceiling: Unl
Heat Index: 53°   Visibility: 10mi
Dew Point: 39°   Wind: 5mph
Humidity: 59%   Direction: 280°W
Pressure: 30.03"   Gusts: NA
Location:  40.8°N, 90.4°W
Report Text: KGBG 260135Z AUTO 28004KT 10SM CLR 12/04 A3003 RMK AO2 T01170038
Loading
Personal Weather Stations






























Interactive Weather Map
Tropical Storm Tracking
New forecast layout! Learn more

10-Day Weather Forecast

Advertisements
Track Severe Weather on mobile